sensor_id;sensor_type;location;lat;lon;timestamp;temperature;humidity
8103;DHT22;4094;49.948;11.574;2023-12-28T00:02:18;8.70;75.70
8103;DHT22;4094;49.948;11.574;2023-12-28T00:05:09;8.60;75.60
8103;DHT22;4094;49.948;11.574;2023-12-28T00:07:58;8.60;75.60
8103;DHT22;4094;49.948;11.574;2023-12-28T00:10:48;8.60;75.70
8103;DHT22;4094;49.948;11.574;2023-12-28T00:13:37;8.60;75.60
8103;DHT22;4094;49.948;11.574;2023-12-28T00:16:27;8.60;75.60
8103;DHT22;4094;49.948;11.574;2023-12-28T00:19:16;8.60;75.70
8103;DHT22;4094;49.948;11.574;2023-12-28T00:22:09;8.50;75.60
8103;DHT22;4094;49.948;11.574;2023-12-28T00:24:58;8.50;75.60
8103;DHT22;4094;49.948;11.574;2023-12-28T00:27:48;8.50;75.60
8103;DHT22;4094;49.948;11.574;2023-12-28T00:30:38;8.50;75.60
8103;DHT22;4094;49.948;11.574;2023-12-28T00:33:28;8.50;75.60
8103;DHT22;4094;49.948;11.574;2023-12-28T00:36:18;8.50;75.70
8103;DHT22;4094;49.948;11.574;2023-12-28T00:39:10;8.50;75.70
8103;DHT22;4094;49.948;11.574;2023-12-28T00:41:59;8.50;75.70
8103;DHT22;4094;49.948;11.574;2023-12-28T00:44:49;8.50;75.70
8103;DHT22;4094;49.948;11.574;2023-12-28T00:47:41;8.40;75.60
8103;DHT22;4094;49.948;11.574;2023-12-28T00:50:31;8.40;75.60
8103;DHT22;4094;49.948;11.574;2023-12-28T00:53:20;8.40;75.60
8103;DHT22;4094;49.948;11.574;2023-12-28T00:56:12;8.40;75.60
8103;DHT22;4094;49.948;11.574;2023-12-28T00:59:01;8.40;75.50
8103;DHT22;4094;49.948;11.574;2023-12-28T01:01:51;8.40;75.30
8103;DHT22;4094;49.948;11.574;2023-12-28T01:04:41;8.40;75.30
8103;DHT22;4094;49.948;11.574;2023-12-28T01:07:30;8.40;75.30
8103;DHT22;4094;49.948;11.574;2023-12-28T01:10:20;8.40;75.40
8103;DHT22;4094;49.948;11.574;2023-12-28T01:13:11;8.40;75.50
8103;DHT22;4094;49.948;11.574;2023-12-28T01:16:01;8.30;75.30
8103;DHT22;4094;49.948;11.574;2023-12-28T01:18:50;8.30;75.30
8103;DHT22;4094;49.948;11.574;2023-12-28T01:21:40;8.30;75.50
8103;DHT22;4094;49.948;11.574;2023-12-28T01:24:30;8.30;75.50
8103;DHT22;4094;49.948;11.574;2023-12-28T01:27:19;8.30;75.50
8103;DHT22;4094;49.948;11.574;2023-12-28T01:30:10;8.30;75.50
8103;DHT22;4094;49.948;11.574;2023-12-28T01:33:00;8.30;75.50
8103;DHT22;4094;49.948;11.574;2023-12-28T01:35:49;8.30;75.50
8103;DHT22;4094;49.948;11.574;2023-12-28T01:38:39;8.20;75.60
8103;DHT22;4094;49.948;11.574;2023-12-28T01:41:28;8.20;75.60
8103;DHT22;4094;49.948;11.574;2023-12-28T01:44:18;8.20;75.60
8103;DHT22;4094;49.948;11.574;2023-12-28T01:47:09;8.20;75.60
8103;DHT22;4094;49.948;11.574;2023-12-28T01:49:59;8.20;75.60
8103;DHT22;4094;49.948;11.574;2023-12-28T01:52:50;8.20;75.60
8103;DHT22;4094;49.948;11.574;2023-12-28T01:55:40;8.20;75.50
8103;DHT22;4094;49.948;11.574;2023-12-28T01:58:32;8.20;75.60
8103;DHT22;4094;49.948;11.574;2023-12-28T02:01:22;8.10;75.50
8103;DHT22;4094;49.948;11.574;2023-12-28T02:04:17;8.10;75.60
8103;DHT22;4094;49.948;11.574;2023-12-28T02:07:15;8.10;75.50
8103;DHT22;4094;49.948;11.574;2023-12-28T02:10:06;8.10;75.40
8103;DHT22;4094;49.948;11.574;2023-12-28T02:12:57;8.10;75.40
8103;DHT22;4094;49.948;11.574;2023-12-28T02:15:53;8.00;75.30
8103;DHT22;4094;49.948;11.574;2023-12-28T02:18:48;8.00;75.30
8103;DHT22;4094;49.948;11.574;2023-12-28T02:21:40;8.00;75.30
8103;DHT22;4094;49.948;11.574;2023-12-28T02:24:29;8.00;76.00
8103;DHT22;4094;49.948;11.574;2023-12-28T02:27:20;8.00;75.20
8103;DHT22;4094;49.948;11.574;2023-12-28T02:30:11;7.90;75.20
8103;DHT22;4094;49.948;11.574;2023-12-28T02:33:11;7.90;75.40
8103;DHT22;4094;49.948;11.574;2023-12-28T02:36:05;7.90;75.30
8103;DHT22;4094;49.948;11.574;2023-12-28T02:38:59;7.80;75.20
8103;DHT22;4094;49.948;11.574;2023-12-28T02:41:52;7.80;76.20
8103;DHT22;4094;49.948;11.574;2023-12-28T02:44:44;7.80;75.50
8103;DHT22;4094;49.948;11.574;2023-12-28T02:47:34;7.80;75.50
8103;DHT22;4094;49.948;11.574;2023-12-28T02:50:23;7.70;75.50
8103;DHT22;4094;49.948;11.574;2023-12-28T02:53:12;7.70;75.60
8103;DHT22;4094;49.948;11.574;2023-12-28T02:56:02;7.70;75.70
8103;DHT22;4094;49.948;11.574;2023-12-28T02:58:52;7.70;75.90
8103;DHT22;4094;49.948;11.574;2023-12-28T03:01:43;7.70;75.80
8103;DHT22;4094;49.948;11.574;2023-12-28T03:04:32;7.70;75.70
8103;DHT22;4094;49.948;11.574;2023-12-28T03:07:22;7.70;75.70
8103;DHT22;4094;49.948;11.574;2023-12-28T03:10:12;7.70;75.70
8103;DHT22;4094;49.948;11.574;2023-12-28T03:13:02;7.70;75.70
8103;DHT22;4094;49.948;11.574;2023-12-28T03:15:52;7.70;75.70
8103;DHT22;4094;49.948;11.574;2023-12-28T03:18:43;7.80;76.00
8103;DHT22;4094;49.948;11.574;2023-12-28T03:21:32;7.70;76.00
8103;DHT22;4094;49.948;11.574;2023-12-28T03:24:22;7.70;75.80
8103;DHT22;4094;49.948;11.574;2023-12-28T03:27:11;7.80;75.80
8103;DHT22;4094;49.948;11.574;2023-12-28T03:30:00;7.70;75.50
8103;DHT22;4094;49.948;11.574;2023-12-28T03:32:51;7.70;75.40
8103;DHT22;4094;49.948;11.574;2023-12-28T03:35:42;7.80;75.50
8103;DHT22;4094;49.948;11.574;2023-12-28T03:38:34;7.80;75.50
8103;DHT22;4094;49.948;11.574;2023-12-28T03:41:23;7.80;75.50
8103;DHT22;4094;49.948;11.574;2023-12-28T03:44:12;7.80;75.50
8103;DHT22;4094;49.948;11.574;2023-12-28T03:47:01;7.80;75.40
8103;DHT22;4094;49.948;11.574;2023-12-28T03:49:50;7.80;75.40
8103;DHT22;4094;49.948;11.574;2023-12-28T03:52:42;7.80;75.80
8103;DHT22;4094;49.948;11.574;2023-12-28T03:55:32;7.80;75.20
8103;DHT22;4094;49.948;11.574;2023-12-28T03:58:23;7.80;75.20
8103;DHT22;4094;49.948;11.574;2023-12-28T04:01:13;7.80;75.00
8103;DHT22;4094;49.948;11.574;2023-12-28T04:04:02;7.80;75.00
8103;DHT22;4094;49.948;11.574;2023-12-28T04:06:52;7.90;75.10
8103;DHT22;4094;49.948;11.574;2023-12-28T04:09:44;7.90;75.00
8103;DHT22;4094;49.948;11.574;2023-12-28T04:12:34;7.90;74.50
8103;DHT22;4094;49.948;11.574;2023-12-28T04:15:26;7.90;75.10
8103;DHT22;4094;49.948;11.574;2023-12-28T04:18:15;7.90;74.40
8103;DHT22;4094;49.948;11.574;2023-12-28T04:21:08;7.90;74.40
8103;DHT22;4094;49.948;11.574;2023-12-28T04:23:57;7.90;73.90
8103;DHT22;4094;49.948;11.574;2023-12-28T04:26:48;7.90;73.90
8103;DHT22;4094;49.948;11.574;2023-12-28T04:29:38;7.90;73.80
8103;DHT22;4094;49.948;11.574;2023-12-28T04:32:28;8.00;73.90
8103;DHT22;4094;49.948;11.574;2023-12-28T04:35:18;8.00;73.80
8103;DHT22;4094;49.948;11.574;2023-12-28T04:38:09;8.10;73.60
8103;DHT22;4094;49.948;11.574;2023-12-28T04:40:58;8.10;73.10
8103;DHT22;4094;49.948;11.574;2023-12-28T04:43:49;8.20;73.30
8103;DHT22;4094;49.948;11.574;2023-12-28T04:46:39;8.20;73.40
8103;DHT22;4094;49.948;11.574;2023-12-28T04:49:30;8.30;73.00
8103;DHT22;4094;49.948;11.574;2023-12-28T04:52:20;8.30;73.00
8103;DHT22;4094;49.948;11.574;2023-12-28T04:55:10;8.40;72.90
8103;DHT22;4094;49.948;11.574;2023-12-28T04:57:59;8.40;72.50
8103;DHT22;4094;49.948;11.574;2023-12-28T05:00:51;8.40;72.40
8103;DHT22;4094;49.948;11.574;2023-12-28T05:03:41;8.50;72.30
8103;DHT22;4094;49.948;11.574;2023-12-28T05:06:30;8.50;72.00
8103;DHT22;4094;49.948;11.574;2023-12-28T05:09:20;8.50;72.10
8103;DHT22;4094;49.948;11.574;2023-12-28T05:12:10;8.60;72.30
8103;DHT22;4094;49.948;11.574;2023-12-28T05:15:00;8.60;72.20
8103;DHT22;4094;49.948;11.574;2023-12-28T05:17:53;8.70;72.30
8103;DHT22;4094;49.948;11.574;2023-12-28T05:20:42;8.70;72.10
8103;DHT22;4094;49.948;11.574;2023-12-28T05:23:32;8.70;71.90
8103;DHT22;4094;49.948;11.574;2023-12-28T05:26:21;8.80;71.60
8103;DHT22;4094;49.948;11.574;2023-12-28T05:29:12;8.80;71.40
8103;DHT22;4094;49.948;11.574;2023-12-28T05:32:01;8.80;71.50
8103;DHT22;4094;49.948;11.574;2023-12-28T05:34:52;8.80;71.50
8103;DHT22;4094;49.948;11.574;2023-12-28T05:37:42;8.80;71.50
8103;DHT22;4094;49.948;11.574;2023-12-28T05:40:31;8.90;71.40
8103;DHT22;4094;49.948;11.574;2023-12-28T05:43:20;8.90;71.30
8103;DHT22;4094;49.948;11.574;2023-12-28T05:46:09;8.90;71.30
8103;DHT22;4094;49.948;11.574;2023-12-28T05:48:59;9.00;71.40
8103;DHT22;4094;49.948;11.574;2023-12-28T05:51:50;9.00;71.50
8103;DHT22;4094;49.948;11.574;2023-12-28T05:54:41;9.00;71.50
8103;DHT22;4094;49.948;11.574;2023-12-28T05:57:31;9.00;71.10
8103;DHT22;4094;49.948;11.574;2023-12-28T06:00:21;9.00;71.10
8103;DHT22;4094;49.948;11.574;2023-12-28T06:03:11;9.10;71.00
8103;DHT22;4094;49.948;11.574;2023-12-28T06:06:00;9.10;71.10
8103;DHT22;4094;49.948;11.574;2023-12-28T06:08:53;9.10;70.60
8103;DHT22;4094;49.948;11.574;2023-12-28T06:11:43;9.10;70.80
8103;DHT22;4094;49.948;11.574;2023-12-28T06:14:33;9.10;70.90
8103;DHT22;4094;49.948;11.574;2023-12-28T06:17:22;9.10;71.00
8103;DHT22;4094;49.948;11.574;2023-12-28T06:20:13;9.10;71.10
8103;DHT22;4094;49.948;11.574;2023-12-28T06:23:02;9.10;71.10
8103;DHT22;4094;49.948;11.574;2023-12-28T06:25:53;9.10;70.70
8103;DHT22;4094;49.948;11.574;2023-12-28T06:28:42;9.00;70.50
8103;DHT22;4094;49.948;11.574;2023-12-28T06:31:32;9.00;70.80
8103;DHT22;4094;49.948;11.574;2023-12-28T06:34:24;9.10;71.00
8103;DHT22;4094;49.948;11.574;2023-12-28T06:37:15;9.00;71.00
8103;DHT22;4094;49.948;11.574;2023-12-28T06:40:05;9.00;70.80
8103;DHT22;4094;49.948;11.574;2023-12-28T06:42:57;9.00;71.00
8103;DHT22;4094;49.948;11.574;2023-12-28T06:45:47;9.10;71.10
8103;DHT22;4094;49.948;11.574;2023-12-28T06:48:36;9.00;71.10
8103;DHT22;4094;49.948;11.574;2023-12-28T06:51:28;9.00;70.70
8103;DHT22;4094;49.948;11.574;2023-12-28T06:54:18;9.00;70.70
8103;DHT22;4094;49.948;11.574;2023-12-28T06:57:07;9.10;70.50
8103;DHT22;4094;49.948;11.574;2023-12-28T06:59:58;9.10;70.40
8103;DHT22;4094;49.948;11.574;2023-12-28T07:02:52;9.10;70.10
8103;DHT22;4094;49.948;11.574;2023-12-28T07:05:42;9.10;70.00
8103;DHT22;4094;49.948;11.574;2023-12-28T07:08:32;9.10;70.20
8103;DHT22;4094;49.948;11.574;2023-12-28T07:11:24;9.10;69.90
8103;DHT22;4094;49.948;11.574;2023-12-28T07:14:15;9.20;69.50
8103;DHT22;4094;49.948;11.574;2023-12-28T07:17:05;9.20;68.70
8103;DHT22;4094;49.948;11.574;2023-12-28T07:19:55;9.30;68.90
8103;DHT22;4094;49.948;11.574;2023-12-28T07:22:44;9.30;68.40
8103;DHT22;4094;49.948;11.574;2023-12-28T07:25:34;9.40;68.70
8103;DHT22;4094;49.948;11.574;2023-12-28T07:28:25;9.40;68.40
8103;DHT22;4094;49.948;11.574;2023-12-28T07:31:22;9.50;68.60
8103;DHT22;4094;49.948;11.574;2023-12-28T07:34:13;9.50;68.40
8103;DHT22;4094;49.948;11.574;2023-12-28T07:37:04;9.60;69.00
8103;DHT22;4094;49.948;11.574;2023-12-28T07:39:53;9.60;69.10
8103;DHT22;4094;49.948;11.574;2023-12-28T07:42:43;9.70;69.20
8103;DHT22;4094;49.948;11.574;2023-12-28T07:45:33;9.80;69.30
8103;DHT22;4094;49.948;11.574;2023-12-28T07:48:23;9.90;69.70
8103;DHT22;4094;49.948;11.574;2023-12-28T07:51:14;9.90;69.60
8103;DHT22;4094;49.948;11.574;2023-12-28T07:54:05;10.00;69.40
8103;DHT22;4094;49.948;11.574;2023-12-28T07:56:54;10.10;69.50
8103;DHT22;4094;49.948;11.574;2023-12-28T07:59:44;10.20;69.40
8103;DHT22;4094;49.948;11.574;2023-12-28T08:02:33;10.20;69.10
8103;DHT22;4094;49.948;11.574;2023-12-28T08:05:24;10.30;69.10
8103;DHT22;4094;49.948;11.574;2023-12-28T08:08:15;10.40;69.00
8103;DHT22;4094;49.948;11.574;2023-12-28T08:11:04;10.40;68.90
8103;DHT22;4094;49.948;11.574;2023-12-28T08:13:54;10.50;69.00
8103;DHT22;4094;49.948;11.574;2023-12-28T08:16:43;10.50;69.00
8103;DHT22;4094;49.948;11.574;2023-12-28T08:19:33;10.70;68.90
8103;DHT22;4094;49.948;11.574;2023-12-28T08:22:23;10.70;68.80
8103;DHT22;4094;49.948;11.574;2023-12-28T08:25:17;10.70;68.70
8103;DHT22;4094;49.948;11.574;2023-12-28T08:28:07;10.80;68.60
8103;DHT22;4094;49.948;11.574;2023-12-28T08:31:00;10.80;68.50
8103;DHT22;4094;49.948;11.574;2023-12-28T08:33:51;10.80;68.50
8103;DHT22;4094;49.948;11.574;2023-12-28T08:36:41;10.90;68.60
8103;DHT22;4094;49.948;11.574;2023-12-28T08:39:31;10.90;68.60
8103;DHT22;4094;49.948;11.574;2023-12-28T08:42:22;10.90;68.90
8103;DHT22;4094;49.948;11.574;2023-12-28T08:45:12;11.00;69.30
8103;DHT22;4094;49.948;11.574;2023-12-28T08:48:02;11.00;69.40
8103;DHT22;4094;49.948;11.574;2023-12-28T08:50:52;11.00;69.60
8103;DHT22;4094;49.948;11.574;2023-12-28T08:53:42;11.10;69.70
8103;DHT22;4094;49.948;11.574;2023-12-28T08:56:31;11.10;69.90
8103;DHT22;4094;49.948;11.574;2023-12-28T08:59:22;11.10;70.00
8103;DHT22;4094;49.948;11.574;2023-12-28T09:02:11;11.20;70.20
8103;DHT22;4094;49.948;11.574;2023-12-28T09:05:01;11.20;70.40
8103;DHT22;4094;49.948;11.574;2023-12-28T09:07:50;11.20;70.50
8103;DHT22;4094;49.948;11.574;2023-12-28T09:10:41;11.20;70.70
8103;DHT22;4094;49.948;11.574;2023-12-28T09:13:31;11.20;70.90
8103;DHT22;4094;49.948;11.574;2023-12-28T09:16:28;11.30;71.20
8103;DHT22;4094;49.948;11.574;2023-12-28T09:19:23;11.30;71.20
8103;DHT22;4094;49.948;11.574;2023-12-28T09:22:12;11.30;72.00
8103;DHT22;4094;49.948;11.574;2023-12-28T09:25:02;11.30;71.30
8103;DHT22;4094;49.948;11.574;2023-12-28T09:27:52;11.30;71.40
8103;DHT22;4094;49.948;11.574;2023-12-28T09:30:42;11.30;71.50
8103;DHT22;4094;49.948;11.574;2023-12-28T09:33:32;11.30;71.50
8103;DHT22;4094;49.948;11.574;2023-12-28T09:36:22;11.40;71.70
8103;DHT22;4094;49.948;11.574;2023-12-28T09:39:12;11.40;71.70
8103;DHT22;4094;49.948;11.574;2023-12-28T09:42:06;11.40;71.80
8103;DHT22;4094;49.948;11.574;2023-12-28T09:44:58;11.40;71.80
8103;DHT22;4094;49.948;11.574;2023-12-28T09:47:48;11.50;71.90
8103;DHT22;4094;49.948;11.574;2023-12-28T09:50:41;11.50;71.90
8103;DHT22;4094;49.948;11.574;2023-12-28T09:53:30;11.50;72.00
8103;DHT22;4094;49.948;11.574;2023-12-28T09:56:21;11.50;72.10
8103;DHT22;4094;49.948;11.574;2023-12-28T09:59:11;11.50;72.30
8103;DHT22;4094;49.948;11.574;2023-12-28T10:02:01;11.50;72.30
8103;DHT22;4094;49.948;11.574;2023-12-28T10:04:51;11.50;73.20
8103;DHT22;4094;49.948;11.574;2023-12-28T10:07:44;11.50;72.40
8103;DHT22;4094;49.948;11.574;2023-12-28T10:10:38;11.60;72.50
8103;DHT22;4094;49.948;11.574;2023-12-28T10:13:28;11.60;72.60
8103;DHT22;4094;49.948;11.574;2023-12-28T10:16:18;11.60;72.60
8103;DHT22;4094;49.948;11.574;2023-12-28T10:19:08;11.70;72.90
8103;DHT22;4094;49.948;11.574;2023-12-28T10:21:58;11.60;72.70
8103;DHT22;4094;49.948;11.574;2023-12-28T10:24:50;11.70;72.80
8103;DHT22;4094;49.948;11.574;2023-12-28T10:27:40;11.70;72.90
8103;DHT22;4094;49.948;11.574;2023-12-28T10:30:32;11.70;72.90
8103;DHT22;4094;49.948;11.574;2023-12-28T10:33:22;11.70;73.30
8103;DHT22;4094;49.948;11.574;2023-12-28T10:36:13;11.70;73.00
8103;DHT22;4094;49.948;11.574;2023-12-28T10:39:07;11.70;73.10
8103;DHT22;4094;49.948;11.574;2023-12-28T10:42:04;11.70;73.90
8103;DHT22;4094;49.948;11.574;2023-12-28T10:45:02;11.80;73.40
8103;DHT22;4094;49.948;11.574;2023-12-28T10:48:04;11.70;73.30
8103;DHT22;4094;49.948;11.574;2023-12-28T10:50:53;11.80;73.40
8103;DHT22;4094;49.948;11.574;2023-12-28T10:53:48;11.80;73.50
8103;DHT22;4094;49.948;11.574;2023-12-28T10:56:52;11.80;73.50
8103;DHT22;4094;49.948;11.574;2023-12-28T10:59:52;11.80;73.80
8103;DHT22;4094;49.948;11.574;2023-12-28T11:02:47;11.80;73.80
8103;DHT22;4094;49.948;11.574;2023-12-28T11:05:40;11.80;73.70
8103;DHT22;4094;49.948;11.574;2023-12-28T11:08:32;11.80;73.80
8103;DHT22;4094;49.948;11.574;2023-12-28T11:11:27;11.80;73.90
8103;DHT22;4094;49.948;11.574;2023-12-28T11:14:17;11.80;73.90
8103;DHT22;4094;49.948;11.574;2023-12-28T11:17:09;11.80;73.90
8103;DHT22;4094;49.948;11.574;2023-12-28T11:20:00;11.80;74.10
8103;DHT22;4094;49.948;11.574;2023-12-28T11:22:50;11.80;74.00
8103;DHT22;4094;49.948;11.574;2023-12-28T11:25:40;11.80;74.10
8103;DHT22;4094;49.948;11.574;2023-12-28T11:28:30;11.80;74.10
8103;DHT22;4094;49.948;11.574;2023-12-28T11:31:21;11.80;74.10
8103;DHT22;4094;49.948;11.574;2023-12-28T11:34:13;11.80;74.20
8103;DHT22;4094;49.948;11.574;2023-12-28T11:37:07;11.80;74.30
8103;DHT22;4094;49.948;11.574;2023-12-28T11:40:10;11.80;74.40
8103;DHT22;4094;49.948;11.574;2023-12-28T11:43:01;11.80;74.60
8103;DHT22;4094;49.948;11.574;2023-12-28T11:45:55;11.80;74.70
8103;DHT22;4094;49.948;11.574;2023-12-28T11:48:45;11.80;74.70
8103;DHT22;4094;49.948;11.574;2023-12-28T11:51:38;11.80;74.70
8103;DHT22;4094;49.948;11.574;2023-12-28T11:54:29;11.80;74.90
8103;DHT22;4094;49.948;11.574;2023-12-28T11:57:19;11.80;74.90
8103;DHT22;4094;49.948;11.574;2023-12-28T12:00:09;11.80;75.00
8103;DHT22;4094;49.948;11.574;2023-12-28T12:02:58;11.90;75.00
8103;DHT22;4094;49.948;11.574;2023-12-28T12:05:50;11.90;75.10
8103;DHT22;4094;49.948;11.574;2023-12-28T12:08:41;11.90;75.20
8103;DHT22;4094;49.948;11.574;2023-12-28T12:11:33;11.90;75.20
8103;DHT22;4094;49.948;11.574;2023-12-28T12:14:23;11.90;75.20
8103;DHT22;4094;49.948;11.574;2023-12-28T12:17:13;11.90;75.40
8103;DHT22;4094;49.948;11.574;2023-12-28T12:20:04;11.90;75.40
8103;DHT22;4094;49.948;11.574;2023-12-28T12:22:57;11.90;75.50
8103;DHT22;4094;49.948;11.574;2023-12-28T12:25:49;11.90;75.60
8103;DHT22;4094;49.948;11.574;2023-12-28T12:28:38;11.90;75.70
8103;DHT22;4094;49.948;11.574;2023-12-28T12:31:31;11.90;75.80
8103;DHT22;4094;49.948;11.574;2023-12-28T12:34:21;11.90;75.80
8103;DHT22;4094;49.948;11.574;2023-12-28T12:37:11;11.90;75.90
8103;DHT22;4094;49.948;11.574;2023-12-28T12:40:01;11.90;76.00
8103;DHT22;4094;49.948;11.574;2023-12-28T12:42:54;11.90;76.10
8103;DHT22;4094;49.948;11.574;2023-12-28T12:45:44;11.90;76.10
8103;DHT22;4094;49.948;11.574;2023-12-28T12:48:36;11.90;76.20
8103;DHT22;4094;49.948;11.574;2023-12-28T12:51:28;11.90;76.20
8103;DHT22;4094;49.948;11.574;2023-12-28T12:54:17;11.90;76.30
8103;DHT22;4094;49.948;11.574;2023-12-28T12:57:08;11.90;76.30
8103;DHT22;4094;49.948;11.574;2023-12-28T13:00:00;11.90;76.30
8103;DHT22;4094;49.948;11.574;2023-12-28T13:02:50;11.90;76.30
8103;DHT22;4094;49.948;11.574;2023-12-28T13:05:41;11.90;76.30
8103;DHT22;4094;49.948;11.574;2023-12-28T13:08:33;11.90;76.30
8103;DHT22;4094;49.948;11.574;2023-12-28T13:11:23;11.90;76.30
8103;DHT22;4094;49.948;11.574;2023-12-28T13:14:14;11.90;76.40
8103;DHT22;4094;49.948;11.574;2023-12-28T13:17:06;11.90;76.50
8103;DHT22;4094;49.948;11.574;2023-12-28T13:19:55;11.90;76.50
8103;DHT22;4094;49.948;11.574;2023-12-28T13:22:45;11.90;76.50
8103;DHT22;4094;49.948;11.574;2023-12-28T13:25:35;11.90;76.50
8103;DHT22;4094;49.948;11.574;2023-12-28T13:28:25;11.90;76.70
8103;DHT22;4094;49.948;11.574;2023-12-28T13:31:14;11.90;76.70
8103;DHT22;4094;49.948;11.574;2023-12-28T13:34:08;11.90;76.70
8103;DHT22;4094;49.948;11.574;2023-12-28T13:36:57;11.90;76.80
8103;DHT22;4094;49.948;11.574;2023-12-28T13:39:47;12.00;76.80
8103;DHT22;4094;49.948;11.574;2023-12-28T13:42:36;12.00;76.90
8103;DHT22;4094;49.948;11.574;2023-12-28T13:45:26;12.00;76.70
8103;DHT22;4094;49.948;11.574;2023-12-28T13:48:16;12.00;76.60
8103;DHT22;4094;49.948;11.574;2023-12-28T13:51:08;12.10;76.60
8103;DHT22;4094;49.948;11.574;2023-12-28T13:53:57;12.10;76.60
8103;DHT22;4094;49.948;11.574;2023-12-28T13:56:47;12.10;76.40
8103;DHT22;4094;49.948;11.574;2023-12-28T13:59:38;12.10;76.30
8103;DHT22;4094;49.948;11.574;2023-12-28T14:02:27;12.20;76.30
8103;DHT22;4094;49.948;11.574;2023-12-28T14:05:17;12.20;76.20
8103;DHT22;4094;49.948;11.574;2023-12-28T14:08:12;12.20;76.00
8103;DHT22;4094;49.948;11.574;2023-12-28T14:11:02;12.20;75.90
8103;DHT22;4094;49.948;11.574;2023-12-28T14:13:55;12.20;75.80
8103;DHT22;4094;49.948;11.574;2023-12-28T14:16:45;12.20;75.80
8103;DHT22;4094;49.948;11.574;2023-12-28T14:19:35;12.30;75.80
8103;DHT22;4094;49.948;11.574;2023-12-28T14:22:26;12.30;75.60
8103;DHT22;4094;49.948;11.574;2023-12-28T14:25:18;12.30;75.60
8103;DHT22;4094;49.948;11.574;2023-12-28T14:28:11;12.30;75.50
8103;DHT22;4094;49.948;11.574;2023-12-28T14:31:01;12.30;75.40
8103;DHT22;4094;49.948;11.574;2023-12-28T14:34:20;12.30;75.30
8103;DHT22;4094;49.948;11.574;2023-12-28T14:37:09;12.30;75.10
8103;DHT22;4094;49.948;11.574;2023-12-28T14:39:59;12.30;75.10
8103;DHT22;4094;49.948;11.574;2023-12-28T14:42:57;12.30;75.00
8103;DHT22;4094;49.948;11.574;2023-12-28T14:45:47;12.30;75.00
8103;DHT22;4094;49.948;11.574;2023-12-28T14:48:37;12.30;75.00
8103;DHT22;4094;49.948;11.574;2023-12-28T14:51:27;12.30;75.00
8103;DHT22;4094;49.948;11.574;2023-12-28T14:54:17;12.30;75.00
8103;DHT22;4094;49.948;11.574;2023-12-28T14:57:06;12.30;75.10
8103;DHT22;4094;49.948;11.574;2023-12-28T14:59:57;12.30;75.10
8103;DHT22;4094;49.948;11.574;2023-12-28T15:02:47;12.30;75.00
8103;DHT22;4094;49.948;11.574;2023-12-28T15:05:38;12.30;75.00
8103;DHT22;4094;49.948;11.574;2023-12-28T15:08:28;12.30;75.00
8103;DHT22;4094;49.948;11.574;2023-12-28T15:11:18;12.30;74.90
8103;DHT22;4094;49.948;11.574;2023-12-28T15:14:24;12.30;74.70
8103;DHT22;4094;49.948;11.574;2023-12-28T15:17:15;12.30;74.70
8103;DHT22;4094;49.948;11.574;2023-12-28T15:20:07;12.30;74.70
8103;DHT22;4094;49.948;11.574;2023-12-28T15:22:59;12.30;74.60
8103;DHT22;4094;49.948;11.574;2023-12-28T15:25:49;12.30;74.40
8103;DHT22;4094;49.948;11.574;2023-12-28T15:28:40;12.20;74.50
8103;DHT22;4094;49.948;11.574;2023-12-28T15:31:30;12.20;74.40
8103;DHT22;4094;49.948;11.574;2023-12-28T15:34:21;12.20;74.60
8103;DHT22;4094;49.948;11.574;2023-12-28T15:37:10;12.20;74.60
8103;DHT22;4094;49.948;11.574;2023-12-28T15:40:00;12.20;74.50
8103;DHT22;4094;49.948;11.574;2023-12-28T15:42:53;12.20;74.40
8103;DHT22;4094;49.948;11.574;2023-12-28T15:45:43;12.20;74.40
8103;DHT22;4094;49.948;11.574;2023-12-28T15:48:32;12.20;74.40
8103;DHT22;4094;49.948;11.574;2023-12-28T15:51:29;12.20;74.40
8103;DHT22;4094;49.948;11.574;2023-12-28T15:54:18;12.20;74.40
8103;DHT22;4094;49.948;11.574;2023-12-28T15:57:08;12.20;74.40
8103;DHT22;4094;49.948;11.574;2023-12-28T15:59:57;12.20;74.60
8103;DHT22;4094;49.948;11.574;2023-12-28T16:02:47;12.10;74.60
8103;DHT22;4094;49.948;11.574;2023-12-28T16:05:37;12.10;74.90
8103;DHT22;4094;49.948;11.574;2023-12-28T16:08:33;12.10;75.00
8103;DHT22;4094;49.948;11.574;2023-12-28T16:11:22;12.10;75.10
8103;DHT22;4094;49.948;11.574;2023-12-28T16:14:12;12.10;75.20
8103;DHT22;4094;49.948;11.574;2023-12-28T16:17:02;12.10;75.30
8103;DHT22;4094;49.948;11.574;2023-12-28T16:19:53;12.10;75.40
8103;DHT22;4094;49.948;11.574;2023-12-28T16:22:43;12.10;75.70
8103;DHT22;4094;49.948;11.574;2023-12-28T16:25:33;12.10;75.90
8103;DHT22;4094;49.948;11.574;2023-12-28T16:28:23;12.10;76.20
8103;DHT22;4094;49.948;11.574;2023-12-28T16:31:14;12.10;76.20
8103;DHT22;4094;49.948;11.574;2023-12-28T16:34:04;12.10;76.30
8103;DHT22;4094;49.948;11.574;2023-12-28T16:36:58;12.10;76.50
8103;DHT22;4094;49.948;11.574;2023-12-28T16:39:47;12.20;76.60
8103;DHT22;4094;49.948;11.574;2023-12-28T16:42:39;12.10;76.60
8103;DHT22;4094;49.948;11.574;2023-12-28T16:45:28;12.20;76.70
8103;DHT22;4094;49.948;11.574;2023-12-28T16:48:18;12.20;76.70
8103;DHT22;4094;49.948;11.574;2023-12-28T16:51:09;12.20;76.70
8103;DHT22;4094;49.948;11.574;2023-12-28T16:54:00;12.10;76.80
8103;DHT22;4094;49.948;11.574;2023-12-28T16:56:51;12.20;76.90
8103;DHT22;4094;49.948;11.574;2023-12-28T16:59:43;12.10;76.80
8103;DHT22;4094;49.948;11.574;2023-12-28T17:02:45;12.10;76.90
8103;DHT22;4094;49.948;11.574;2023-12-28T17:05:35;12.10;76.90
8103;DHT22;4094;49.948;11.574;2023-12-28T17:08:25;12.10;76.80
8103;DHT22;4094;49.948;11.574;2023-12-28T17:11:17;12.20;76.80
8103;DHT22;4094;49.948;11.574;2023-12-28T17:14:07;12.20;76.80
8103;DHT22;4094;49.948;11.574;2023-12-28T17:16:59;12.20;76.70
8103;DHT22;4094;49.948;11.574;2023-12-28T17:19:49;12.20;76.60
8103;DHT22;4094;49.948;11.574;2023-12-28T17:22:43;12.20;76.50
8103;DHT22;4094;49.948;11.574;2023-12-28T17:25:41;12.20;76.40
8103;DHT22;4094;49.948;11.574;2023-12-28T17:28:36;12.20;76.50
8103;DHT22;4094;49.948;11.574;2023-12-28T17:31:31;12.30;76.30
8103;DHT22;4094;49.948;11.574;2023-12-28T17:34:23;12.30;76.30
8103;DHT22;4094;49.948;11.574;2023-12-28T17:37:13;12.30;76.30
8103;DHT22;4094;49.948;11.574;2023-12-28T17:40:04;12.30;76.30
8103;DHT22;4094;49.948;11.574;2023-12-28T17:42:58;12.30;76.30
8103;DHT22;4094;49.948;11.574;2023-12-28T17:45:56;12.30;76.30
8103;DHT22;4094;49.948;11.574;2023-12-28T17:48:52;12.30;76.30
8103;DHT22;4094;49.948;11.574;2023-12-28T17:51:46;12.30;76.40
8103;DHT22;4094;49.948;11.574;2023-12-28T17:54:38;12.30;76.50
8103;DHT22;4094;49.948;11.574;2023-12-28T17:57:27;12.30;76.50
8103;DHT22;4094;49.948;11.574;2023-12-28T18:00:18;12.30;76.70
8103;DHT22;4094;49.948;11.574;2023-12-28T18:03:08;12.20;76.80
8103;DHT22;4094;49.948;11.574;2023-12-28T18:05:57;12.20;76.90
8103;DHT22;4094;49.948;11.574;2023-12-28T18:08:49;12.20;76.90
8103;DHT22;4094;49.948;11.574;2023-12-28T18:11:38;12.20;77.10
8103;DHT22;4094;49.948;11.574;2023-12-28T18:14:28;12.20;76.90
8103;DHT22;4094;49.948;11.574;2023-12-28T18:17:18;12.20;76.90
8103;DHT22;4094;49.948;11.574;2023-12-28T18:20:08;12.20;76.90
8103;DHT22;4094;49.948;11.574;2023-12-28T18:22:59;12.20;76.80
8103;DHT22;4094;49.948;11.574;2023-12-28T18:25:50;12.20;76.70